createdAt,value
2019-05-14T00:02:11.940Z,85.32
2019-05-14T00:04:43.122Z,85.32
2019-05-14T00:07:14.956Z,85.53
2019-05-14T00:09:46.804Z,84.78
2019-05-14T00:12:22.427Z,84.67
2019-05-14T00:14:54.371Z,84.15
2019-05-14T00:17:26.648Z,84.02
2019-05-14T00:20:07.238Z,84.42
2019-05-14T00:22:35.213Z,84.15
2019-05-14T00:25:07.364Z,84.45
2019-05-14T00:27:41.439Z,85.14
2019-05-14T00:30:16.761Z,84.86
2019-05-14T00:32:55.178Z,84.22
2019-05-14T00:35:27.073Z,83.43
2019-05-14T00:38:02.753Z,82.91
2019-05-14T00:40:34.742Z,82.87
2019-05-14T00:43:06.643Z,82.85
2019-05-14T00:45:41.804Z,82.36
2019-05-14T00:48:16.364Z,82.37
2019-05-14T00:50:52.299Z,82.37
2019-05-14T00:53:24.197Z,82.68
2019-05-14T00:55:58.736Z,82.97
2019-05-14T00:58:35.082Z,83.13
2019-05-14T01:01:06.939Z,83.00
2019-05-14T01:03:41.338Z,82.27
2019-05-14T01:06:17.604Z,82.00
2019-05-14T01:08:51.667Z,82.06
2019-05-14T01:11:24.361Z,83.23
2019-05-14T01:13:56.460Z,83.66
2019-05-14T01:16:28.504Z,84.14
2019-05-14T01:19:02.190Z,84.38
2019-05-14T01:21:34.271Z,84.90
2019-05-14T01:24:06.218Z,85.43
2019-05-14T01:26:38.309Z,86.20
2019-05-14T01:29:12.003Z,86.80
2019-05-14T01:31:44.064Z,86.59
2019-05-14T01:34:15.947Z,86.85
2019-05-14T01:36:47.818Z,87.44
2019-05-14T01:39:21.301Z,87.94
2019-05-14T01:41:55.990Z,87.67
2019-05-14T01:44:27.910Z,87.14
2019-05-14T01:47:01.989Z,86.77
2019-05-14T01:49:34.163Z,86.22
2019-05-14T01:52:06.042Z,85.11
2019-05-14T01:54:37.948Z,84.78
2019-05-14T01:57:11.484Z,86.51
2019-05-14T01:59:46.159Z,87.39
2019-05-14T02:02:18.133Z,87.92
2019-05-14T02:04:53.117Z,87.92
2019-05-14T02:07:25.381Z,88.07
2019-05-14T02:09:57.336Z,87.65
2019-05-14T02:12:31.400Z,87.23
2019-05-14T02:15:02.865Z,86.22
2019-05-14T02:17:35.815Z,84.94
2019-05-14T02:20:09.733Z,83.82
2019-05-14T02:22:41.894Z,82.63
2019-05-14T02:25:14.044Z,83.36
2019-05-14T02:27:45.897Z,84.32
2019-05-14T02:30:28.522Z,85.27
2019-05-14T02:32:56.060Z,85.82
2019-05-14T02:35:29.759Z,86.75
2019-05-14T02:38:02.140Z,87.50
2019-05-14T02:40:34.056Z,87.89
2019-05-14T02:43:09.433Z,88.57
2019-05-14T02:46:00.059Z,89.07
2019-05-14T02:48:14.660Z,88.91
2019-05-14T02:50:49.412Z,88.51
2019-05-14T02:53:21.164Z,88.05
2019-05-14T02:55:53.065Z,87.49
2019-05-14T02:58:29.869Z,87.15
2019-05-14T03:01:02.865Z,87.19
2019-05-14T03:03:40.230Z,86.35
2019-05-14T03:06:11.280Z,85.70
2019-05-14T03:08:43.293Z,86.67
2019-05-14T03:11:15.507Z,87.27
2019-05-14T03:13:49.446Z,87.22
2019-05-14T03:16:30.464Z,87.30
2019-05-14T03:18:55.594Z,88.19
2019-05-14T03:21:30.322Z,88.49
2019-05-14T03:24:01.615Z,88.07
2019-05-14T03:26:34.920Z,87.09
2019-05-14T03:29:09.923Z,85.93
2019-05-14T03:31:43.145Z,85.61
2019-05-14T03:34:22.189Z,85.50
2019-05-14T03:36:53.280Z,85.00
2019-05-14T03:39:25.355Z,85.10
2019-05-14T03:41:59.186Z,85.69
2019-05-14T03:44:31.527Z,85.86
2019-05-14T03:47:05.195Z,85.52
2019-05-14T03:49:39.701Z,85.45
2019-05-14T03:52:13.088Z,85.03
2019-05-14T03:54:45.090Z,85.47
2019-05-14T03:57:19.791Z,84.85
2019-05-14T03:59:50.719Z,85.28
2019-05-14T04:02:23.321Z,84.98
2019-05-14T04:04:55.562Z,85.32
2019-05-14T04:07:30.394Z,84.62
2019-05-14T04:10:04.325Z,84.00
2019-05-14T04:12:40.427Z,83.96
2019-05-14T04:15:12.789Z,84.16
2019-05-14T04:17:49.860Z,85.26
2019-05-14T04:20:19.896Z,86.38
2019-05-14T04:23:03.824Z,87.29
2019-05-14T04:25:38.985Z,87.53
2019-05-14T04:28:15.374Z,87.87
2019-05-14T04:30:50.167Z,86.74
2019-05-14T04:33:25.130Z,85.50
2019-05-14T04:35:59.845Z,85.16
2019-05-14T04:38:32.110Z,85.26
2019-05-14T04:41:04.012Z,85.27
2019-05-14T04:43:39.996Z,85.66
2019-05-14T04:46:12.166Z,85.86
2019-05-14T04:48:44.382Z,85.91
2019-05-14T04:51:19.630Z,85.80
2019-05-14T04:53:50.550Z,86.97
2019-05-14T04:56:22.782Z,88.05
2019-05-14T04:58:55.032Z,88.52
2019-05-14T05:01:29.422Z,88.69
2019-05-14T05:04:00.538Z,88.89
2019-05-14T05:06:33.167Z,88.51
2019-05-14T05:09:09.391Z,88.10
2019-05-14T05:11:41.036Z,86.44
2019-05-14T05:14:12.945Z,85.61
2019-05-14T05:16:45.675Z,84.19
2019-05-14T05:19:19.688Z,84.08
2019-05-14T05:21:51.258Z,83.16
2019-05-14T05:24:25.460Z,84.03
2019-05-14T05:26:58.568Z,84.29
2019-05-14T05:29:30.675Z,83.68
2019-05-14T05:32:02.616Z,82.19
2019-05-14T05:34:34.511Z,81.84
2019-05-14T05:37:08.651Z,81.60
2019-05-14T05:39:40.020Z,82.00
2019-05-14T05:42:12.210Z,80.89
2019-05-14T05:44:44.438Z,79.93
2019-05-14T05:47:18.254Z,78.60
2019-05-14T05:49:49.940Z,76.70
2019-05-14T05:52:21.899Z,74.80
2019-05-14T05:54:53.842Z,74.93
2019-05-14T05:57:28.206Z,75.15
2019-05-14T05:59:59.662Z,74.92
2019-05-14T06:02:31.677Z,73.46
2019-05-14T06:05:03.663Z,69.26
2019-05-14T06:07:35.659Z,61.29
2019-05-14T06:10:08.786Z,53.54
2019-05-14T06:12:43.827Z,46.91
2019-05-14T06:15:19.117Z,43.03
2019-05-14T06:17:52.200Z,40.93
2019-05-14T06:20:24.594Z,38.69
2019-05-14T06:22:58.726Z,39.01
2019-05-14T06:25:31.428Z,37.08
2019-05-14T06:28:03.433Z,36.00
2019-05-14T06:30:39.509Z,35.85
2019-05-14T06:33:11.729Z,34.96
2019-05-14T06:35:43.914Z,33.60
2019-05-14T06:38:15.810Z,31.32
2019-05-14T06:40:48.941Z,30.25
2019-05-14T06:43:28.497Z,29.75
2019-05-14T06:45:59.787Z,27.81
2019-05-14T06:48:34.753Z,26.57
2019-05-14T06:51:05.477Z,25.14
2019-05-14T06:53:39.215Z,24.13
2019-05-14T06:56:11.043Z,23.33
2019-05-14T06:58:42.963Z,22.56
2019-05-14T07:01:14.893Z,23.98
2019-05-14T07:03:49.032Z,23.33
2019-05-14T07:06:20.569Z,22.73
2019-05-14T07:08:53.770Z,23.08
2019-05-14T07:11:25.774Z,22.77
2019-05-14T07:13:58.184Z,21.73
2019-05-14T07:16:30.495Z,21.79
2019-05-14T07:19:02.398Z,22.71
2019-05-14T07:21:38.211Z,21.71
2019-05-14T07:24:09.634Z,21.88
2019-05-14T07:26:41.520Z,22.41
2019-05-14T07:29:15.040Z,22.07
2019-05-14T07:31:48.955Z,20.96
2019-05-14T07:34:20.643Z,20.60
2019-05-14T07:36:52.605Z,20.17
2019-05-14T07:39:29.106Z,19.50
2019-05-14T07:42:01.292Z,18.95
2019-05-14T07:44:33.201Z,17.40
2019-05-14T07:47:07.994Z,16.12
2019-05-14T07:49:40.596Z,15.68
2019-05-14T07:52:12.516Z,15.57
2019-05-14T07:54:44.473Z,15.55
2019-05-14T07:57:18.951Z,14.53
2019-05-14T07:59:50.025Z,15.35
2019-05-14T08:02:21.977Z,15.27
2019-05-14T08:04:54.069Z,14.36
2019-05-14T08:07:28.038Z,14.03
2019-05-14T08:09:59.883Z,13.63
2019-05-14T08:12:31.797Z,13.01
2019-05-14T08:15:15.231Z,12.21
2019-05-14T08:17:38.797Z,11.93
2019-05-14T08:20:11.749Z,12.22
2019-05-14T08:22:43.938Z,11.45
2019-05-14T08:25:18.971Z,10.90
2019-05-14T08:27:51.217Z,10.76
2019-05-14T08:30:23.421Z,10.29
2019-05-14T08:32:55.325Z,10.98
2019-05-14T08:35:29.068Z,10.53
2019-05-14T08:38:07.790Z,10.46
2019-05-14T08:40:34.632Z,10.33
2019-05-14T08:43:08.617Z,10.11
2019-05-14T08:45:40.294Z,9.56
2019-05-14T08:48:12.239Z,9.77
2019-05-14T08:50:44.147Z,9.32
2019-05-14T08:53:18.575Z,10.45
2019-05-14T08:55:50.429Z,10.80
2019-05-14T08:58:22.376Z,11.04
2019-05-14T09:00:58.827Z,11.67
2019-05-14T09:03:31.315Z,10.63
2019-05-14T09:06:04.436Z,10.60
2019-05-14T09:08:38.673Z,11.54
2019-05-14T09:11:10.215Z,11.13
2019-05-14T09:13:42.106Z,11.09
2019-05-14T09:16:14.024Z,11.91
2019-05-14T09:18:48.834Z,11.29
2019-05-14T09:21:20.826Z,10.66
2019-05-14T09:23:52.726Z,9.90
2019-05-14T09:26:24.657Z,10.98
2019-05-14T09:28:58.568Z,10.49
2019-05-14T09:31:30.315Z,10.03
2019-05-14T09:34:02.216Z,10.23
2019-05-14T09:36:34.418Z,10.37
2019-05-14T09:39:11.839Z,9.91
2019-05-14T09:41:41.632Z,10.54
2019-05-14T09:44:19.712Z,9.82
2019-05-14T09:46:51.632Z,9.93
2019-05-14T09:49:23.791Z,10.90
2019-05-14T09:51:58.354Z,11.09
2019-05-14T09:54:31.668Z,11.19
2019-05-14T09:57:05.377Z,10.41
2019-05-14T09:59:38.438Z,11.02
2019-05-14T10:02:10.469Z,11.29
2019-05-14T10:04:42.687Z,10.93
2019-05-14T10:07:16.106Z,10.91
2019-05-14T10:09:49.196Z,10.60
2019-05-14T10:12:21.242Z,12.10
2019-05-14T10:14:54.795Z,11.50
2019-05-14T10:17:29.039Z,11.50
2019-05-14T10:20:02.432Z,11.72
2019-05-14T10:22:39.537Z,11.09
2019-05-14T10:25:11.248Z,11.06
2019-05-14T10:27:43.144Z,11.93
2019-05-14T10:30:17.977Z,10.22
2019-05-14T10:32:49.399Z,11.39
2019-05-14T10:35:23.197Z,11.78
2019-05-14T10:37:55.119Z,11.56
2019-05-14T10:40:29.273Z,12.15
2019-05-14T10:43:03.623Z,11.83
2019-05-14T10:45:35.529Z,11.99
2019-05-14T10:48:10.047Z,11.33
2019-05-14T10:50:56.199Z,10.88
2019-05-14T10:53:15.540Z,10.64
2019-05-14T10:55:48.580Z,10.04
2019-05-14T10:58:20.606Z,10.90
2019-05-14T11:00:52.524Z,10.33
2019-05-14T11:03:24.577Z,11.43
2019-05-14T11:05:58.697Z,10.88
2019-05-14T11:08:30.167Z,10.18
2019-05-14T11:11:04.202Z,9.19
2019-05-14T11:13:35.788Z,9.68
2019-05-14T11:16:10.196Z,9.68
2019-05-14T11:18:42.568Z,9.87
2019-05-14T11:21:24.742Z,8.99
2019-05-14T11:23:49.083Z,9.46
2019-05-14T11:26:24.653Z,10.04
2019-05-14T11:28:55.162Z,9.88
2019-05-14T11:31:34.042Z,9.90
2019-05-14T11:34:03.392Z,9.90
2019-05-14T11:36:35.289Z,9.55
2019-05-14T11:39:09.385Z,9.97
2019-05-14T11:41:41.523Z,10.75
2019-05-14T11:44:16.491Z,11.19
2019-05-14T11:46:57.251Z,12.99
2019-05-14T11:49:22.250Z,13.57
2019-05-14T11:52:04.098Z,15.25
2019-05-14T11:54:29.180Z,15.83
2019-05-14T11:57:01.300Z,16.70
2019-05-14T11:59:34.944Z,17.65
2019-05-14T12:02:09.450Z,16.90
2019-05-14T12:04:40.432Z,16.74
2019-05-14T12:07:12.356Z,17.41
2019-05-14T12:09:44.257Z,16.50
2019-05-14T12:12:18.818Z,16.95
2019-05-14T12:14:51.480Z,16.75
2019-05-14T12:17:23.646Z,17.24
2019-05-14T12:19:55.545Z,16.79
2019-05-14T12:22:28.666Z,17.66
2019-05-14T12:25:00.730Z,18.59
2019-05-14T12:27:32.582Z,17.43
2019-05-14T12:30:04.769Z,18.64
2019-05-14T12:32:39.626Z,17.23
2019-05-14T12:35:12.096Z,17.79
2019-05-14T12:37:44.055Z,18.49
2019-05-14T12:40:19.414Z,18.48
2019-05-14T12:42:51.541Z,19.75
2019-05-14T12:45:23.571Z,19.44
2019-05-14T12:47:58.318Z,18.24
2019-05-14T12:50:29.441Z,15.74
2019-05-14T12:53:01.899Z,16.48
2019-05-14T12:55:33.828Z,18.40
2019-05-14T12:58:08.121Z,19.47
2019-05-14T13:00:39.658Z,19.57
2019-05-14T13:03:11.607Z,19.83
2019-05-14T13:05:44.821Z,18.44
2019-05-14T13:08:18.405Z,18.55
2019-05-14T13:10:52.146Z,18.98
2019-05-14T13:13:24.116Z,17.24
2019-05-14T13:15:57.902Z,18.34
2019-05-14T13:18:32.975Z,18.22
2019-05-14T13:21:05.221Z,18.55
2019-05-14T13:23:38.305Z,18.01
2019-05-14T13:26:11.005Z,18.73
2019-05-14T13:28:45.013Z,17.50
2019-05-14T13:31:20.827Z,17.34
2019-05-14T13:33:52.819Z,17.25
2019-05-14T13:36:24.785Z,18.51
2019-05-14T13:38:59.227Z,18.94
2019-05-14T13:41:30.613Z,18.41
2019-05-14T13:44:17.303Z,19.07
2019-05-14T13:46:36.369Z,18.74
2019-05-14T13:49:08.668Z,18.54
2019-05-14T13:51:40.616Z,18.52
2019-05-14T13:54:12.913Z,19.45
2019-05-14T13:56:48.386Z,18.56
2019-05-14T13:59:21.495Z,17.77
2019-05-14T14:01:54.885Z,16.98
2019-05-14T14:04:27.205Z,16.33
2019-05-14T14:06:59.210Z,18.20
2019-05-14T14:09:31.638Z,19.89
2019-05-14T14:12:05.494Z,18.97
2019-05-14T14:14:39.910Z,19.20
2019-05-14T14:17:11.883Z,17.40
2019-05-14T14:19:43.841Z,18.01
2019-05-14T14:22:19.082Z,17.71
2019-05-14T14:24:49.703Z,17.73
2019-05-14T14:27:22.300Z,17.42
2019-05-14T14:29:54.249Z,18.20
2019-05-14T14:32:26.211Z,19.11
2019-05-14T14:34:58.926Z,19.99
2019-05-14T14:37:31.212Z,19.78
2019-05-14T14:40:03.162Z,20.29
2019-05-14T14:42:36.224Z,20.05
2019-05-14T14:45:09.613Z,19.28
2019-05-14T14:47:41.745Z,19.75
2019-05-14T14:50:15.565Z,20.06
2019-05-14T14:52:49.592Z,18.44
2019-05-14T14:55:21.674Z,19.05
2019-05-14T14:57:55.263Z,19.37
2019-05-14T15:00:29.544Z,19.71
2019-05-14T15:03:01.668Z,19.80
2019-05-14T15:05:33.645Z,18.74
2019-05-14T15:08:10.045Z,18.88
2019-05-14T15:10:40.288Z,19.28
2019-05-14T15:13:13.618Z,19.78
2019-05-14T15:15:45.614Z,20.99
2019-05-14T15:18:18.771Z,21.03
2019-05-14T15:20:51.009Z,20.87
2019-05-14T15:23:28.475Z,20.86
2019-05-14T15:25:59.499Z,21.40
2019-05-14T15:28:31.503Z,21.64
2019-05-14T15:31:03.468Z,20.83
2019-05-14T15:33:38.902Z,20.72
2019-05-14T15:36:11.010Z,20.70
2019-05-14T15:38:43.010Z,20.61
2019-05-14T15:41:15.323Z,20.75
2019-05-14T15:43:47.390Z,20.80
2019-05-14T15:46:21.267Z,20.90
2019-05-14T15:48:55.595Z,20.96
2019-05-14T15:51:28.647Z,21.46
2019-05-14T15:54:15.953Z,22.17
2019-05-14T15:56:39.310Z,22.45
2019-05-14T15:59:09.906Z,22.60
2019-05-14T16:01:41.819Z,22.57
2019-05-14T16:04:13.738Z,21.11
2019-05-14T16:06:49.127Z,20.66
2019-05-14T16:09:21.499Z,21.09
2019-05-14T16:11:54.434Z,22.15
2019-05-14T16:14:26.408Z,23.16
2019-05-14T16:16:58.701Z,22.81
2019-05-14T16:19:30.655Z,22.53
2019-05-14T16:22:02.739Z,22.73
2019-05-14T16:24:53.005Z,23.08
2019-05-14T16:27:11.266Z,23.88
2019-05-14T16:29:45.992Z,23.71
2019-05-14T16:32:16.915Z,24.46
2019-05-14T16:34:49.006Z,24.39
2019-05-14T16:37:20.973Z,24.44
2019-05-14T16:39:55.689Z,24.72
2019-05-14T16:42:29.233Z,24.69
2019-05-14T16:45:01.372Z,25.31
2019-05-14T16:47:34.878Z,24.83
2019-05-14T16:50:08.929Z,25.29
2019-05-14T16:52:42.148Z,25.83
2019-05-14T16:55:24.546Z,25.68
2019-05-14T16:57:51.472Z,25.46
2019-05-14T17:00:23.516Z,25.96
2019-05-14T17:02:55.518Z,25.79
2019-05-14T17:05:29.898Z,26.32
2019-05-14T17:08:01.629Z,26.04
2019-05-14T17:10:33.765Z,26.10
2019-05-14T17:13:09.123Z,26.48
2019-05-14T17:15:41.383Z,25.24
2019-05-14T17:18:13.336Z,24.84
2019-05-14T17:20:45.691Z,24.37
2019-05-14T17:23:19.301Z,24.64
2019-05-14T17:25:51.399Z,24.58
2019-05-14T17:28:23.695Z,23.90
2019-05-14T17:30:55.693Z,23.73
2019-05-14T17:33:29.170Z,23.88
2019-05-14T17:36:02.282Z,24.05
2019-05-14T17:38:35.489Z,24.52
2019-05-14T17:41:09.431Z,24.37
2019-05-14T17:43:41.236Z,24.32
2019-05-14T17:46:18.213Z,24.69
2019-05-14T17:48:49.380Z,24.46
2019-05-14T17:51:22.973Z,24.62
2019-05-14T17:53:54.894Z,24.70
2019-05-14T17:56:28.409Z,25.22
2019-05-14T17:59:04.787Z,25.20
2019-05-14T18:01:39.079Z,25.32
2019-05-14T18:04:11.149Z,24.97
2019-05-14T18:06:48.642Z,25.12
2019-05-14T18:09:20.022Z,25.13
2019-05-14T18:11:55.418Z,24.44
2019-05-14T18:14:28.375Z,24.06
2019-05-14T18:17:00.483Z,24.30
2019-05-14T18:19:32.865Z,25.08
2019-05-14T18:22:04.832Z,25.60
2019-05-14T18:24:39.057Z,25.60
2019-05-14T18:27:12.109Z,25.81
2019-05-14T18:29:44.409Z,25.81
2019-05-14T18:32:16.367Z,26.10
2019-05-14T18:34:48.732Z,25.77
2019-05-14T18:37:20.801Z,26.18
2019-05-14T18:39:52.805Z,26.59
2019-05-14T18:42:24.893Z,26.35
2019-05-14T18:44:59.025Z,27.89
2019-05-14T18:47:31.403Z,29.16
2019-05-14T18:50:03.324Z,29.96
2019-05-14T18:52:35.405Z,30.36
2019-05-14T18:55:08.780Z,30.73
2019-05-14T18:57:40.847Z,31.05
2019-05-14T19:00:13.030Z,31.33
2019-05-14T19:02:45.071Z,31.54
2019-05-14T19:05:18.561Z,32.00
2019-05-14T19:07:50.586Z,32.61
2019-05-14T19:10:22.714Z,32.36
2019-05-14T19:12:54.774Z,32.68
2019-05-14T19:15:28.900Z,33.51
2019-05-14T19:18:01.442Z,34.28
2019-05-14T19:20:33.510Z,34.28
2019-05-14T19:23:08.277Z,34.74
2019-05-14T19:25:40.320Z,35.23
2019-05-14T19:28:12.451Z,36.90
2019-05-14T19:30:45.490Z,36.44
2019-05-14T19:33:28.733Z,35.54
2019-05-14T19:36:02.143Z,35.76
2019-05-14T19:38:38.835Z,36.16
2019-05-14T19:41:22.948Z,36.23
2019-05-14T19:43:54.327Z,36.94
2019-05-14T19:46:29.667Z,37.34
2019-05-14T19:49:01.881Z,37.82
2019-05-14T19:51:33.949Z,38.40
2019-05-14T19:54:08.173Z,38.91
2019-05-14T19:56:51.946Z,39.99
2019-05-14T19:59:13.789Z,40.47
2019-05-14T20:01:48.230Z,40.85
2019-05-14T20:04:19.451Z,41.42
2019-05-14T20:06:53.964Z,42.23
2019-05-14T20:09:54.250Z,42.52
2019-05-14T20:12:54.681Z,42.82
2019-05-14T20:15:31.365Z,43.28
2019-05-14T20:18:08.806Z,44.77
2019-05-14T20:20:43.203Z,46.23
2019-05-14T20:23:15.148Z,47.38
2019-05-14T20:25:48.193Z,47.71
2019-05-14T20:28:20.447Z,47.72
2019-05-14T20:30:55.339Z,48.12
2019-05-14T20:33:27.334Z,48.71
2019-05-14T20:36:02.377Z,48.76
2019-05-14T20:38:34.468Z,49.15
2019-05-14T20:41:08.659Z,50.08
2019-05-14T20:43:43.675Z,51.07
2019-05-14T20:46:18.647Z,51.04
2019-05-14T20:48:50.376Z,52.28
2019-05-14T20:51:22.362Z,53.64
2019-05-14T20:53:55.071Z,54.45
2019-05-14T20:56:28.438Z,54.02
2019-05-14T20:59:00.669Z,54.13
2019-05-14T21:01:32.775Z,53.92
2019-05-14T21:04:05.721Z,55.74
2019-05-14T21:06:39.012Z,56.74
2019-05-14T21:09:13.251Z,56.21
2019-05-14T21:11:45.390Z,55.18
2019-05-14T21:14:18.820Z,55.89
2019-05-14T21:16:53.739Z,56.22
2019-05-14T21:19:28.342Z,57.17
2019-05-14T21:22:02.149Z,57.76
2019-05-14T21:24:34.318Z,58.06
2019-05-14T21:27:09.113Z,60.59
2019-05-14T21:29:40.355Z,60.86
2019-05-14T21:32:12.527Z,60.42
2019-05-14T21:34:44.972Z,60.76
2019-05-14T21:37:18.881Z,60.58
2019-05-14T21:39:52.713Z,61.35
2019-05-14T21:42:28.561Z,61.34
2019-05-14T21:45:06.757Z,61.35
2019-05-14T21:47:38.742Z,62.15
2019-05-14T21:50:10.638Z,63.01
2019-05-14T21:53:12.127Z,63.23
2019-05-14T21:55:44.149Z,63.93
2019-05-14T21:58:18.727Z,64.17
2019-05-14T22:00:59.282Z,64.73
2019-05-14T22:03:35.588Z,65.45
2019-05-14T22:06:08.923Z,66.13
2019-05-14T22:08:48.893Z,65.43
2019-05-14T22:11:20.959Z,64.18
2019-05-14T22:13:54.517Z,64.81
2019-05-14T22:16:28.130Z,64.82
2019-05-14T22:19:01.883Z,66.13
2019-05-14T22:21:38.604Z,66.05
2019-05-14T22:24:11.137Z,66.04
2019-05-14T22:26:43.205Z,66.94
2019-05-14T22:29:17.912Z,67.86
2019-05-14T22:31:50.290Z,68.78
2019-05-14T22:34:23.567Z,69.49
2019-05-14T22:36:58.102Z,70.41
2019-05-14T22:39:30.333Z,70.55
2019-05-14T22:42:03.016Z,69.91
2019-05-14T22:44:37.298Z,69.46
2019-05-14T22:47:09.451Z,69.94
2019-05-14T22:49:41.655Z,70.21
2019-05-14T22:52:13.986Z,68.57
2019-05-14T22:54:45.998Z,67.51
2019-05-14T22:57:21.047Z,67.43
2019-05-14T23:00:00.736Z,66.99
2019-05-14T23:02:35.215Z,66.47
2019-05-14T23:05:09.396Z,67.00
2019-05-14T23:07:43.235Z,68.38
2019-05-14T23:10:18.372Z,69.71
2019-05-14T23:12:50.500Z,70.76
2019-05-14T23:15:22.582Z,72.88
2019-05-14T23:17:58.898Z,74.14
2019-05-14T23:20:31.003Z,74.21
2019-05-14T23:23:11.704Z,74.74
2019-05-14T23:25:46.782Z,75.32
2019-05-14T23:28:19.327Z,75.84
2019-05-14T23:30:53.220Z,75.75
2019-05-14T23:33:31.293Z,75.93
2019-05-14T23:36:05.176Z,75.95
2019-05-14T23:38:40.394Z,76.25
2019-05-14T23:41:14.041Z,76.07
2019-05-14T23:43:48.356Z,76.91
2019-05-14T23:46:25.577Z,77.46
2019-05-14T23:49:01.517Z,76.95
2019-05-14T23:51:34.653Z,76.81
2019-05-14T23:54:08.729Z,77.31
2019-05-14T23:56:40.462Z,77.75
2019-05-14T23:59:12.478Z,77.57
